الصفحة الرئيسية
METAR-TAF:

METAR-TAF

مطار :

فيجاياوادا, الهند

دائرة عرض: 16-31-44N, خط طول: 80-47-45E, ارتفاع: 25 متر

مراقبة الطقس الحالي

تاريخ ووقت الإصدار 28 دقيقة قبل الساعة 08:30UTC
ريح 2 عقدةمن اتجاهات متغيرة
درجة الحرارة 31°درجة مئوية
الرطوبة 55%
ضغط 1008 hPa
الرؤية: 4500 متر
غيوم متفرقة على ارتفاع 2000 قدم
غيوم متفرقة على ارتفاع 10000 قدم
العجاج

METAR: VOBZ 260830Z VRB02KT 4500 HZ SCT020 SCT100 31/21 Q1008 NOSIG

زمن: 14:28 (08:58 UTC)

توقعات

تاريخ ووقت الإصدار 58 دقيقة قبل الساعة 08:00UTC
التوقعات صالحة من26 الساعة 09 UTC إلى 26 الساعة 18 UTC
ريح 10 عقدة من الشرق
الرؤية: 4000 متر
غيوم متفرقة على ارتفاع 1500 قدم
غيوم متفرقة على ارتفاع 10000 قدم
غشاء, العجاج
مؤقت
من 26 الساعة 12 UTC إلى 26 الساعة 18 UTC
ريح 6 عقدة من الشمال الشرقي
الرؤية: 3000 متر
غيوم متفرقة على ارتفاع 1500 قدم
غيوم متفرقة على ارتفاع 8000 قدم
غشاء

TAF: VOBZ 260800Z 2609/2618 09010KT 4000 BR HZ SCT015 SCT100 TEMPO 2612/2618 05006KT 3000 BR SCT015 SCT080

أرصاد الطقس والتوقعات من أكثر من 4000 مطار (تقارير الطقس للمطار METAR والتنبؤ بالطقس بالمطارTAF).

المحطات المتاحة هي النقط الصفراء والحمراء على الخريطة.

حرك المؤشر فوق النقطة لمعرفة اسم المحطة.

ثم انقر لمعرفة أرصاد وتوقعات الطقس.

لتغيير الخارطة: اضغط على الأزرار الخضراء مع رمز الصليب الأسود للتكبير. على الزر الأخضر مع شرطة للتصغير، أو على الأسهم الخضراء للخرائط المجاورة.


METAR-TAF: